createdAt,value
2022-09-28T00:01:32.723Z,11.10
2022-09-28T00:04:37.184Z,11.20
2022-09-28T00:07:40.278Z,11.20
2022-09-28T00:10:43.374Z,11.20
2022-09-28T00:13:49.564Z,11.30
2022-09-28T00:16:52.716Z,11.20
2022-09-28T00:19:58.018Z,11.30
2022-09-28T00:23:01.103Z,11.30
2022-09-28T00:26:04.517Z,11.20
2022-09-28T00:29:08.887Z,11.20
2022-09-28T00:32:13.743Z,11.10
2022-09-28T00:35:18.162Z,11.00
2022-09-28T00:38:21.204Z,10.90
2022-09-28T00:41:25.118Z,10.90
2022-09-28T00:44:40.855Z,10.80
2022-09-28T00:47:51.563Z,10.70
2022-09-28T00:50:56.614Z,10.80
2022-09-28T00:54:02.706Z,10.70
2022-09-28T00:57:06.244Z,10.60
2022-09-28T01:00:11.233Z,10.60
2022-09-28T01:03:14.888Z,10.60
2022-09-28T01:06:22.420Z,10.60
2022-09-28T01:09:27.277Z,10.50
2022-09-28T01:12:30.357Z,10.50
2022-09-28T01:15:41.257Z,10.40
2022-09-28T01:18:53.834Z,10.30
2022-09-28T01:22:16.142Z,10.30
2022-09-28T01:25:31.498Z,10.20
2022-09-28T01:28:36.068Z,10.20
2022-09-28T01:31:45.370Z,10.20
2022-09-28T01:34:57.640Z,10.20
2022-09-28T01:38:03.944Z,10.20
2022-09-28T01:41:08.350Z,10.10
2022-09-28T01:44:17.578Z,10.10
2022-09-28T01:47:24.442Z,10.10
2022-09-28T01:50:31.422Z,10.00
2022-09-28T01:53:38.676Z,10.00
2022-09-28T01:56:46.245Z,10.00
2022-09-28T01:59:56.475Z,10.00
2022-09-28T02:03:06.783Z,10.00
2022-09-28T02:06:16.030Z,10.00
2022-09-28T02:09:23.678Z,9.90
2022-09-28T02:12:34.713Z,9.90
2022-09-28T02:15:47.110Z,9.90
2022-09-28T02:18:50.913Z,9.90
2022-09-28T02:22:00.527Z,9.90
2022-09-28T02:25:10.406Z,9.90
2022-09-28T02:28:14.905Z,9.80
2022-09-28T02:31:19.673Z,9.70
2022-09-28T02:34:22.816Z,9.60
2022-09-28T02:37:26.509Z,9.60
2022-09-28T02:40:33.163Z,9.60
2022-09-28T02:43:50.504Z,9.50
2022-09-28T02:47:00.815Z,9.50
2022-09-28T02:50:14.173Z,9.50
2022-09-28T02:53:34.545Z,9.50
2022-09-28T02:56:54.511Z,9.50
2022-09-28T03:00:08.291Z,9.40
2022-09-28T03:03:19.195Z,9.40
2022-09-28T03:06:27.367Z,9.40
2022-09-28T03:09:37.710Z,9.30
2022-09-28T03:12:42.574Z,9.40
2022-09-28T03:15:48.888Z,9.30
2022-09-28T03:18:53.597Z,9.30
2022-09-28T03:21:56.745Z,9.30
2022-09-28T03:24:59.808Z,9.30
2022-09-28T03:28:03.282Z,9.30
2022-09-28T03:31:06.559Z,9.30
2022-09-28T03:34:11.129Z,9.20
2022-09-28T03:37:14.166Z,9.10
2022-09-28T03:40:17.253Z,9.00
2022-09-28T03:43:20.395Z,9.00
2022-09-28T03:46:23.580Z,9.00
2022-09-28T03:49:28.081Z,9.00
2022-09-28T03:52:31.207Z,9.00
2022-09-28T03:55:34.421Z,9.00
2022-09-28T03:58:37.517Z,8.90
2022-09-28T04:01:40.737Z,8.90
2022-09-28T04:04:45.211Z,8.90
2022-09-28T04:07:48.294Z,8.90
2022-09-28T04:10:51.398Z,8.80
2022-09-28T04:13:54.493Z,8.80
2022-09-28T04:16:57.589Z,8.80
2022-09-28T04:20:03.902Z,8.90
2022-09-28T04:23:06.963Z,8.80
2022-09-28T04:26:16.683Z,8.80
2022-09-28T04:29:19.409Z,8.80
2022-09-28T04:32:22.819Z,8.70
2022-09-28T04:35:27.352Z,8.80
2022-09-28T04:38:51.368Z,8.80
2022-09-28T04:41:53.506Z,8.70
2022-09-28T04:44:58.016Z,8.60
2022-09-28T04:48:01.104Z,8.70
2022-09-28T04:51:05.760Z,8.70
2022-09-28T04:54:08.833Z,8.60
2022-09-28T04:57:11.955Z,8.60
2022-09-28T05:00:16.320Z,8.60
2022-09-28T05:03:19.516Z,8.50
2022-09-28T05:06:28.033Z,8.50
2022-09-28T05:09:33.992Z,8.40
2022-09-28T05:12:40.710Z,8.40
2022-09-28T05:15:43.903Z,8.50
2022-09-28T05:18:47.478Z,8.50
2022-09-28T05:21:51.928Z,8.50
2022-09-28T05:24:55.871Z,8.60
2022-09-28T05:28:01.808Z,8.80
2022-09-28T05:31:06.166Z,9.00
2022-09-28T05:34:09.256Z,9.20
2022-09-28T05:37:13.674Z,9.40
2022-09-28T05:40:17.136Z,9.60
2022-09-28T05:43:20.320Z,9.80
2022-09-28T05:46:23.843Z,9.90
2022-09-28T05:49:29.220Z,10.00
2022-09-28T05:52:33.708Z,10.00
2022-09-28T05:55:38.253Z,9.90
2022-09-28T05:58:41.369Z,9.90
2022-09-28T06:01:44.514Z,9.80
2022-09-28T06:04:49.569Z,9.70
2022-09-28T06:07:56.198Z,9.60
2022-09-28T06:11:01.555Z,9.60
2022-09-28T06:14:05.235Z,9.60
2022-09-28T06:17:08.482Z,9.60
2022-09-28T06:20:12.408Z,9.70
2022-09-28T06:23:16.916Z,9.80
2022-09-28T06:26:20.006Z,9.90
2022-09-28T06:29:23.071Z,10.00
2022-09-28T06:32:29.307Z,10.10
2022-09-28T06:35:33.298Z,10.20
2022-09-28T06:38:38.192Z,10.40
2022-09-28T06:41:41.213Z,10.60
2022-09-28T06:44:44.409Z,10.70
2022-09-28T06:47:48.341Z,10.90
2022-09-28T06:50:51.833Z,11.20
2022-09-28T06:53:56.913Z,11.40
2022-09-28T06:56:59.977Z,11.80
2022-09-28T07:00:03.440Z,12.30
2022-09-28T07:03:08.051Z,13.00
2022-09-28T07:06:12.538Z,13.80
2022-09-28T07:09:31.462Z,14.20
2022-09-28T07:12:36.696Z,14.50
2022-09-28T07:15:40.366Z,15.40
2022-09-28T07:18:43.455Z,16.80
2022-09-28T07:21:55.629Z,18.70
2022-09-28T07:25:07.236Z,20.80
2022-09-28T07:28:10.325Z,21.90
2022-09-28T07:31:13.498Z,21.50
2022-09-28T07:34:17.493Z,21.90
2022-09-28T07:37:20.970Z,22.80
2022-09-28T07:40:47.508Z,24.10
2022-09-28T07:43:51.621Z,25.80
2022-09-28T07:46:54.732Z,26.90
2022-09-28T07:49:58.035Z,28.50
2022-09-28T07:53:01.697Z,29.60
2022-09-28T07:56:08.014Z,30.20
2022-09-28T07:59:11.378Z,30.10
2022-09-28T08:02:15.015Z,29.50
2022-09-28T08:05:18.174Z,28.70
2022-09-28T08:08:21.250Z,27.60
2022-09-28T08:11:25.813Z,26.60
2022-09-28T08:14:28.891Z,25.70
2022-09-28T08:17:32.228Z,24.60
2022-09-28T08:20:53.285Z,24.50
2022-09-28T08:23:56.404Z,24.60
2022-09-28T08:27:00.879Z,24.40
2022-09-28T08:30:04.153Z,24.50
2022-09-28T08:33:07.852Z,24.10
2022-09-28T08:36:11.831Z,24.70
2022-09-28T08:39:14.985Z,25.70
2022-09-28T08:42:32.366Z,26.20
2022-09-28T08:45:35.913Z,26.10
2022-09-28T08:49:13.309Z,25.90
2022-09-28T08:52:23.556Z,25.40
2022-09-28T08:55:31.885Z,25.40
2022-09-28T08:58:42.477Z,25.20
2022-09-28T09:01:49.939Z,25.10
2022-09-28T09:04:53.840Z,24.80
2022-09-28T09:08:09.987Z,24.40
2022-09-28T09:11:27.999Z,23.80
2022-09-28T09:14:55.851Z,22.80
2022-09-28T09:18:09.742Z,21.70
2022-09-28T09:21:16.683Z,21.60
2022-09-28T09:24:32.418Z,21.40
2022-09-28T09:27:49.467Z,20.90
2022-09-28T09:31:05.718Z,20.20
2022-09-28T09:34:53.894Z,19.90
2022-09-28T09:38:09.472Z,20.10
2022-09-28T09:41:19.526Z,20.60
2022-09-28T09:44:49.667Z,20.50
2022-09-28T09:48:00.040Z,20.50
2022-09-28T09:51:05.967Z,20.90
2022-09-28T09:54:15.841Z,21.20
2022-09-28T09:57:22.862Z,20.60
2022-09-28T10:00:25.959Z,20.40
2022-09-28T10:03:34.131Z,20.40
2022-09-28T10:06:39.898Z,20.20
2022-09-28T10:09:45.806Z,19.90
2022-09-28T10:12:51.175Z,19.80
2022-09-28T10:15:55.490Z,20.10
2022-09-28T10:19:00.273Z,19.80
2022-09-28T10:22:07.014Z,19.10
2022-09-28T10:25:10.969Z,18.60
2022-09-28T10:28:19.347Z,18.40
2022-09-28T10:31:37.387Z,18.00
2022-09-28T10:34:41.871Z,17.40
2022-09-28T10:37:52.283Z,17.00
2022-09-28T10:40:59.394Z,17.20
2022-09-28T10:44:08.758Z,17.60
2022-09-28T10:47:17.240Z,17.90
2022-09-28T10:50:25.312Z,18.10
2022-09-28T10:53:28.447Z,18.00
2022-09-28T10:56:38.183Z,17.80
2022-09-28T10:59:42.616Z,17.70
2022-09-28T11:02:45.853Z,17.60
2022-09-28T11:06:00.334Z,17.80
2022-09-28T11:09:05.436Z,17.80
2022-09-28T11:12:16.154Z,18.70
2022-09-28T11:15:21.237Z,19.40
2022-09-28T11:18:29.615Z,19.90
2022-09-28T11:21:43.340Z,20.40
2022-09-28T11:24:46.844Z,21.00
2022-09-28T11:28:04.282Z,21.50
2022-09-28T11:31:09.038Z,21.20
2022-09-28T11:34:31.140Z,20.80
2022-09-28T11:38:02.121Z,21.10
2022-09-28T11:41:18.547Z,21.90
2022-09-28T11:44:39.854Z,22.50
2022-09-28T11:47:56.215Z,23.80
2022-09-28T11:51:04.462Z,24.50
2022-09-28T11:54:18.071Z,24.70
2022-09-28T11:57:26.046Z,25.90
2022-09-28T12:00:30.159Z,27.00
2022-09-28T12:03:41.084Z,29.60
2022-09-28T12:06:51.010Z,32.80
2022-09-28T12:09:59.505Z,35.40
2022-09-28T12:13:05.758Z,36.70
2022-09-28T12:16:38.736Z,38.20
2022-09-28T12:19:43.723Z,36.50
2022-09-28T12:22:51.738Z,34.90
2022-09-28T12:25:59.840Z,32.30
2022-09-28T12:29:12.013Z,29.50
2022-09-28T12:32:32.182Z,28.00
2022-09-28T12:35:46.002Z,27.30
2022-09-28T12:39:30.972Z,29.80
2022-09-28T12:42:44.354Z,29.20
2022-09-28T12:46:20.815Z,28.90
2022-09-28T12:53:20.076Z,32.80
2022-09-28T12:56:30.521Z,31.00
2022-09-28T12:59:39.521Z,29.10
2022-09-28T13:02:58.656Z,27.20
2022-09-28T13:06:34.509Z,26.50
2022-09-28T13:09:48.702Z,25.90
2022-09-28T13:13:17.608Z,25.40
2022-09-28T13:16:29.807Z,24.90
2022-09-28T13:19:41.282Z,24.60
2022-09-28T13:22:55.142Z,23.00
2022-09-28T13:26:04.660Z,22.30
2022-09-28T13:29:14.577Z,21.50
2022-09-28T13:32:20.418Z,21.30
2022-09-28T13:35:23.794Z,21.30
2022-09-28T13:38:51.983Z,21.20
2022-09-28T13:41:56.084Z,20.80
2022-09-28T13:45:35.050Z,20.40
2022-09-28T13:48:51.628Z,19.90
2022-09-28T13:52:05.203Z,19.50
2022-09-28T13:55:33.199Z,19.40
2022-09-28T13:58:40.009Z,19.10
2022-09-28T14:01:51.813Z,18.90
2022-09-28T14:04:59.605Z,18.70
2022-09-28T14:08:29.123Z,18.50
2022-09-28T14:11:57.761Z,18.50
2022-09-28T14:15:01.248Z,18.50
2022-09-28T14:18:11.604Z,18.40
2022-09-28T14:21:39.872Z,18.40
2022-09-28T14:25:00.663Z,18.20
2022-09-28T14:28:23.329Z,18.10
2022-09-28T14:31:28.322Z,17.80
2022-09-28T14:34:37.202Z,17.80
2022-09-28T14:38:00.826Z,17.90
2022-09-28T14:41:12.928Z,17.90
2022-09-28T14:44:17.291Z,17.50
2022-09-28T14:47:34.636Z,17.50
2022-09-28T14:50:37.754Z,17.50
2022-09-28T14:53:42.781Z,17.60
2022-09-28T14:56:50.058Z,17.60
2022-09-28T14:59:54.086Z,17.50
2022-09-28T15:03:01.837Z,17.40
2022-09-28T15:06:05.023Z,17.40
2022-09-28T15:09:30.737Z,17.30
2022-09-28T15:12:33.918Z,17.30
2022-09-28T15:15:39.297Z,17.20
2022-09-28T15:19:15.792Z,17.20
2022-09-28T15:22:20.016Z,17.10
2022-09-28T15:25:26.340Z,17.00
2022-09-28T15:28:29.467Z,17.00
2022-09-28T15:31:36.894Z,16.90
2022-09-28T15:34:57.260Z,16.90
2022-09-28T15:38:00.438Z,16.90
2022-09-28T15:41:07.837Z,16.90
2022-09-28T15:44:30.035Z,16.90
2022-09-28T15:47:33.902Z,16.90
2022-09-28T15:50:38.167Z,16.80
2022-09-28T15:53:52.614Z,16.80
2022-09-28T15:56:59.549Z,16.80
2022-09-28T16:00:03.014Z,16.70
2022-09-28T16:03:23.238Z,16.60
2022-09-28T16:06:26.377Z,16.50
2022-09-28T16:09:40.326Z,16.50
2022-09-28T16:12:48.697Z,16.50
2022-09-28T16:15:59.852Z,16.40
2022-09-28T16:19:04.225Z,16.40
2022-09-28T16:22:09.438Z,16.30
2022-09-28T16:25:19.906Z,16.20
2022-09-28T16:28:49.038Z,16.10
2022-09-28T16:31:53.226Z,16.00
2022-09-28T16:35:18.625Z,16.00
2022-09-28T16:38:23.272Z,16.00
2022-09-28T16:41:28.962Z,16.00
2022-09-28T16:44:35.873Z,16.10
2022-09-28T16:47:40.571Z,16.00
2022-09-28T16:50:45.107Z,15.90
2022-09-28T16:54:20.637Z,15.90
2022-09-28T16:57:23.822Z,15.90
2022-09-28T17:00:29.379Z,15.90
2022-09-28T17:03:32.812Z,15.90
2022-09-28T17:06:35.964Z,15.90
2022-09-28T17:09:39.223Z,15.80
2022-09-28T17:12:42.778Z,15.80
2022-09-28T17:15:50.329Z,15.80
2022-09-28T17:18:53.587Z,15.80
2022-09-28T17:21:56.635Z,15.70
2022-09-28T17:24:59.827Z,15.70
2022-09-28T17:28:03.952Z,15.70
2022-09-28T17:31:15.310Z,15.70
2022-09-28T17:34:19.907Z,15.70
2022-09-28T17:37:23.124Z,15.60
2022-09-28T17:40:28.770Z,15.60
2022-09-28T17:43:31.930Z,15.60
2022-09-28T17:46:38.755Z,15.60
2022-09-28T17:49:42.710Z,15.60
2022-09-28T17:52:47.388Z,15.50
2022-09-28T17:55:50.632Z,15.60
2022-09-28T17:58:53.848Z,15.50
2022-09-28T18:02:02.048Z,15.50
2022-09-28T18:05:05.973Z,15.50
2022-09-28T18:08:10.810Z,15.40
2022-09-28T18:11:14.338Z,15.40
2022-09-28T18:14:17.528Z,15.40
2022-09-28T18:17:22.085Z,15.50
2022-09-28T18:20:25.252Z,15.40
2022-09-28T18:23:28.423Z,15.50
2022-09-28T18:26:31.580Z,15.50
2022-09-28T18:29:34.748Z,15.50
2022-09-28T18:32:39.542Z,15.40
2022-09-28T18:35:51.222Z,15.40
2022-09-28T18:38:54.361Z,15.30
2022-09-28T18:41:57.795Z,15.20
2022-09-28T18:45:01.054Z,15.30
2022-09-28T18:48:05.782Z,15.20
2022-09-28T18:51:11.019Z,15.30
2022-09-28T18:54:14.540Z,15.20
2022-09-28T18:57:18.033Z,15.20
2022-09-28T19:00:21.480Z,15.10
2022-09-28T19:03:26.547Z,15.00
2022-09-28T19:06:30.311Z,15.00
2022-09-28T19:09:33.834Z,15.00
2022-09-28T19:12:37.327Z,15.00
2022-09-28T19:15:40.638Z,15.00
2022-09-28T19:18:45.604Z,14.90
2022-09-28T19:21:48.873Z,14.90
2022-09-28T19:24:52.528Z,14.80
2022-09-28T19:27:55.582Z,14.80
2022-09-28T19:30:59.289Z,14.80
2022-09-28T19:34:04.188Z,14.90
2022-09-28T19:37:07.344Z,14.90
2022-09-28T19:40:11.016Z,14.90
2022-09-28T19:43:14.750Z,14.90
2022-09-28T19:46:18.268Z,14.90
2022-09-28T19:49:23.911Z,14.90
2022-09-28T19:52:27.117Z,14.90
2022-09-28T19:55:31.875Z,14.80
2022-09-28T19:58:37.329Z,14.80
2022-09-28T20:01:41.983Z,14.80
2022-09-28T20:04:46.544Z,14.90
2022-09-28T20:07:49.685Z,14.90
2022-09-28T20:10:54.694Z,14.90
2022-09-28T20:13:59.732Z,14.90
2022-09-28T20:17:02.880Z,14.90
2022-09-28T20:20:08.081Z,14.90
2022-09-28T20:23:11.448Z,14.90
2022-09-28T20:26:15.597Z,14.90
2022-09-28T20:29:18.853Z,14.90
2022-09-28T20:32:22.056Z,14.90
2022-09-28T20:35:33.023Z,14.80
2022-09-28T20:38:37.317Z,14.80
2022-09-28T20:41:41.181Z,14.80
2022-09-28T20:44:44.631Z,14.80
2022-09-28T20:47:47.772Z,14.80
2022-09-28T20:50:58.998Z,14.80
2022-09-28T20:54:02.162Z,14.80
2022-09-28T20:57:17.291Z,14.70
2022-09-28T21:00:20.553Z,14.80
2022-09-28T21:03:24.866Z,14.70
2022-09-28T21:06:31.540Z,14.80
2022-09-28T21:09:36.523Z,14.80
2022-09-28T21:12:40.791Z,14.70
2022-09-28T21:15:43.957Z,14.70
2022-09-28T21:18:48.075Z,14.80
2022-09-28T21:21:53.264Z,14.70
2022-09-28T21:24:56.466Z,14.70
2022-09-28T21:27:59.614Z,14.70
2022-09-28T21:31:03.904Z,14.70
2022-09-28T21:34:07.390Z,14.70
2022-09-28T21:37:12.004Z,14.70
2022-09-28T21:40:15.276Z,14.70
2022-09-28T21:43:18.419Z,14.70
2022-09-28T21:46:21.649Z,14.70
2022-09-28T21:49:24.811Z,14.70
2022-09-28T21:52:29.797Z,14.70
2022-09-28T21:55:32.898Z,14.70
2022-09-28T21:58:37.138Z,14.70
2022-09-28T22:01:42.827Z,14.70
2022-09-28T22:04:46.022Z,14.80
2022-09-28T22:07:50.521Z,14.80
2022-09-28T22:11:05.698Z,14.70
2022-09-28T22:14:10.881Z,14.70
2022-09-28T22:17:13.965Z,14.80
2022-09-28T22:20:17.302Z,14.80
2022-09-28T22:23:23.054Z,14.80
2022-09-28T22:26:27.980Z,14.80
2022-09-28T22:29:31.120Z,14.70
2022-09-28T22:32:34.280Z,14.70
2022-09-28T22:35:37.500Z,14.70
2022-09-28T22:38:42.123Z,14.70
2022-09-28T22:41:46.075Z,14.70
2022-09-28T22:44:49.350Z,14.70
2022-09-28T22:47:52.689Z,14.60
2022-09-28T22:50:55.863Z,14.60
2022-09-28T22:54:01.257Z,14.60
2022-09-28T22:57:04.450Z,14.60
2022-09-28T23:00:09.106Z,14.60
2022-09-28T23:03:12.315Z,14.70
2022-09-28T23:06:17.698Z,14.70
2022-09-28T23:09:22.187Z,14.60
2022-09-28T23:12:25.248Z,14.50
2022-09-28T23:15:29.077Z,14.50
2022-09-28T23:18:35.892Z,14.60
2022-09-28T23:21:39.701Z,14.70
2022-09-28T23:24:44.244Z,14.70
2022-09-28T23:27:48.039Z,14.70
2022-09-28T23:30:52.245Z,14.80
2022-09-28T23:33:58.745Z,14.80
2022-09-28T23:37:01.841Z,14.80
2022-09-28T23:40:07.395Z,14.70
2022-09-28T23:43:10.523Z,14.70
2022-09-28T23:46:20.326Z,14.70
2022-09-28T23:49:24.050Z,14.70
2022-09-28T23:52:27.314Z,14.70
2022-09-28T23:55:32.022Z,14.70
2022-09-28T23:58:35.152Z,14.70
